createdAt,value
2022-09-10T00:01:54.031Z,11.5
2022-09-10T00:03:55.989Z,10.9
2022-09-10T00:05:58.039Z,10.7
2022-09-10T00:08:03.151Z,12.6
2022-09-10T00:10:05.173Z,9.9
2022-09-10T00:12:07.219Z,10
2022-09-10T00:14:09.253Z,12.2
2022-09-10T00:16:11.322Z,10.4
2022-09-10T00:20:15.381Z,10.8
2022-09-10T00:22:20.487Z,9.4
2022-09-10T00:26:24.582Z,8.5
2022-09-10T00:28:43.515Z,-1
2022-09-10T00:30:50.756Z,9.9
2022-09-10T00:32:52.791Z,10.5
2022-09-10T00:34:57.917Z,9.7
2022-09-10T00:37:00.061Z,10.9
2022-09-10T00:39:01.966Z,9.3
2022-09-10T00:41:04.004Z,9.8
2022-09-10T00:43:06.044Z,12.6
2022-09-10T00:45:08.070Z,9.6
2022-09-10T00:47:10.296Z,11.9
2022-09-10T00:49:15.223Z,11.6
2022-09-10T00:51:17.250Z,11
2022-09-10T00:53:19.286Z,11.6
2022-09-10T00:55:21.309Z,11.2
2022-09-10T00:57:23.352Z,11.3
2022-09-10T00:59:25.390Z,11
2022-09-10T01:01:27.435Z,12
2022-09-10T01:05:34.578Z,12.3
2022-09-10T01:07:36.594Z,12.4
2022-09-10T01:09:38.633Z,12.5
2022-09-10T01:11:40.700Z,12.7
2022-09-10T01:13:42.753Z,12
2022-09-10T01:15:44.761Z,12.5
2022-09-10T01:17:49.869Z,14.5
2022-09-10T01:31:07.770Z,16.2
2022-09-10T01:35:11.780Z,16.6
2022-09-10T01:37:13.836Z,15.8
2022-09-10T01:39:15.868Z,16.1
2022-09-10T01:41:17.891Z,16.2
2022-09-10T01:43:19.927Z,16.9
2022-09-10T01:45:25.052Z,18.7
2022-09-10T01:47:27.055Z,18.7
2022-09-10T01:49:29.120Z,15.5
2022-09-10T01:51:31.146Z,18.6
2022-09-10T01:53:33.168Z,17.9
2022-09-10T01:55:35.202Z,18
2022-09-10T01:57:37.243Z,19.5
2022-09-10T01:59:42.345Z,20.7
2022-09-10T02:01:44.394Z,17.4
2022-09-10T02:03:46.411Z,21.1
2022-09-10T02:05:48.458Z,18.1
2022-09-10T02:07:50.478Z,20.2
2022-09-10T02:09:52.499Z,21.3
2022-09-10T02:11:54.532Z,20.5
2022-09-10T02:13:59.630Z,21.2
2022-09-10T02:16:03.304Z,21.8
2022-09-10T02:18:05.205Z,20.4
2022-09-10T02:19:07.743Z,19.3
2022-09-10T02:21:09.757Z,19.8
2022-09-10T02:23:11.791Z,20.4
2022-09-10T02:25:13.812Z,20.9
2022-09-10T02:27:18.939Z,25.3
2022-09-10T02:29:20.968Z,21.8
2022-09-10T02:31:23.049Z,22.6
2022-09-10T02:33:25.037Z,22.3
2022-09-10T02:35:27.052Z,20.1
2022-09-10T02:37:29.084Z,19.1
2022-09-10T02:39:31.108Z,25.4
2022-09-10T02:41:36.206Z,24
2022-09-10T02:43:38.396Z,22.3
2022-09-10T02:45:40.295Z,21.9
2022-09-10T02:47:42.279Z,21
2022-09-10T02:49:44.325Z,20.8
2022-09-10T02:57:55.517Z,23.3
2022-09-10T03:01:59.611Z,24.4
2022-09-10T03:06:03.619Z,24.7
2022-09-10T03:08:05.646Z,23.5
2022-09-10T03:10:10.760Z,23
2022-09-10T03:12:12.795Z,23.6
2022-09-10T03:14:14.827Z,23.4
2022-09-10T03:21:23.447Z,23.7
2022-09-10T03:23:28.559Z,24.2
2022-09-10T03:25:30.594Z,24.5
2022-09-10T03:27:32.611Z,23.7
2022-09-10T03:29:34.640Z,23.1
2022-09-10T03:31:36.714Z,23.9
2022-09-10T03:33:38.705Z,24.3
2022-09-10T03:35:40.751Z,25.6
2022-09-10T03:37:45.827Z,26.2
2022-09-10T03:39:47.870Z,26.6
2022-09-10T03:41:49.876Z,23.7
2022-09-10T03:43:51.919Z,24.5
2022-09-10T03:45:53.997Z,25.9
2022-09-10T03:47:55.973Z,24.8
2022-09-10T03:54:05.172Z,25
2022-09-10T03:58:09.227Z,24.4
2022-09-10T04:00:11.241Z,26.1
2022-09-10T04:10:24.452Z,25.4
2022-09-10T04:12:47.422Z,26.1
2022-09-10T04:14:49.458Z,24.2
2022-09-10T04:16:51.557Z,22.2
2022-09-10T04:20:58.610Z,24.2
2022-09-10T04:23:00.644Z,24.4
2022-09-10T04:25:02.685Z,23.2
2022-09-10T04:27:04.717Z,25.6
2022-09-10T04:29:06.727Z,24.4
2022-09-10T04:31:08.769Z,23.3
2022-09-10T04:33:13.874Z,26.5
2022-09-10T04:35:15.899Z,25.6
2022-09-10T04:37:19.442Z,24.2
2022-09-10T04:39:19.965Z,25.3
2022-09-10T04:41:21.981Z,22.8
2022-09-10T04:43:24.007Z,24.1
2022-09-10T04:45:26.087Z,23.6
2022-09-10T04:47:31.119Z,26.9
2022-09-10T04:49:33.194Z,23.8
2022-09-10T05:06:55.008Z,26.2
2022-09-10T05:08:57.009Z,27.1
2022-09-10T05:10:59.022Z,23
2022-09-10T05:13:01.054Z,24.3
2022-09-10T05:15:06.164Z,26.6
2022-09-10T05:17:08.171Z,25.5
2022-09-10T05:19:10.215Z,22.7
2022-09-10T05:21:12.220Z,25.5
2022-09-10T05:23:14.247Z,25
2022-09-10T05:25:16.283Z,24.6
2022-09-10T05:27:18.297Z,24.7
2022-09-10T05:31:25.474Z,22.5
2022-09-10T05:33:27.446Z,22.4
2022-09-10T05:35:29.491Z,24
2022-09-10T05:37:31.524Z,24.1
2022-09-10T05:39:33.589Z,24
2022-09-10T05:41:35.564Z,24.3
2022-09-10T05:43:40.667Z,25.7
2022-09-10T05:45:42.725Z,26.4
2022-09-10T05:47:44.736Z,24.5
2022-09-10T05:49:46.773Z,27.1
2022-09-10T05:51:48.795Z,25.7
2022-09-10T05:53:50.851Z,27.6
2022-09-10T05:55:52.872Z,26.5
2022-09-10T05:57:57.952Z,28
2022-09-10T05:59:59.975Z,27.7
2022-09-10T06:03:04.667Z,28
2022-09-10T06:05:06.616Z,26.6
2022-09-10T06:07:08.624Z,29.2
2022-09-10T06:09:10.643Z,27.7
2022-09-10T06:11:15.715Z,27.8
2022-09-10T06:13:17.760Z,28.5
2022-09-10T06:15:19.779Z,28
2022-09-10T06:19:23.834Z,25.7
2022-09-10T06:22:25.156Z,24.4
2022-09-10T06:23:27.878Z,26
2022-09-10T06:25:32.996Z,28.3
2022-09-10T06:27:34.995Z,24
2022-09-10T06:29:37.036Z,24.9
2022-09-10T06:31:39.056Z,24.3
2022-09-10T06:37:45.147Z,22.8
2022-09-10T06:41:52.286Z,22.4
2022-09-10T06:43:54.292Z,22.6
2022-09-10T06:45:56.385Z,22.9
2022-09-10T06:52:02.372Z,21.4
2022-09-10T06:54:07.460Z,21.6
2022-09-10T06:56:09.484Z,22.2
2022-09-10T06:58:11.516Z,22
2022-09-10T06:59:14.065Z,20.6
2022-09-10T07:01:16.089Z,20.9
2022-09-10T07:03:18.089Z,21.2
2022-09-10T07:07:25.204Z,19.7
2022-09-10T07:09:27.233Z,18.9
2022-09-10T07:19:37.281Z,16
2022-09-10T07:23:44.357Z,14.2
2022-09-10T07:25:46.376Z,13.3
2022-09-10T07:27:48.392Z,14.7
2022-09-10T07:29:50.413Z,12.9
2022-09-10T07:31:52.408Z,14
2022-09-10T07:33:54.406Z,11.7
2022-09-10T07:35:59.486Z,11.7
2022-09-10T07:38:01.492Z,11.1
2022-09-10T07:42:05.490Z,9.7
2022-09-10T07:44:07.532Z,7.5
2022-09-10T07:46:09.573Z,9.1
2022-09-10T07:48:11.520Z,9.3
2022-09-10T07:50:16.601Z,8.9
2022-09-10T07:52:18.618Z,8.4
2022-09-10T07:54:20.635Z,9
2022-09-10T07:56:43.291Z,8.5
2022-09-10T07:58:45.300Z,9.7
2022-09-10T08:00:47.295Z,9.6
2022-09-10T08:02:52.381Z,8.9
2022-09-10T08:04:54.397Z,9.1
2022-09-10T08:08:59.882Z,9.4
2022-09-10T08:11:01.901Z,10.6
2022-09-10T08:13:04.038Z,9.2
2022-09-10T08:15:05.891Z,9.5
2022-09-10T08:17:10.986Z,9.1
2022-09-10T08:19:12.974Z,8.3
2022-09-10T08:21:15.007Z,7.7
2022-09-10T08:23:16.998Z,9.4
2022-09-10T08:25:18.997Z,7.3
2022-09-10T08:27:21.032Z,9.6
2022-09-10T08:29:23.038Z,10.4
2022-09-10T08:31:28.107Z,9.9
2022-09-10T08:33:30.120Z,9.5
2022-09-10T08:35:32.137Z,9.1
2022-09-10T08:37:34.153Z,10.6
2022-09-10T08:39:36.258Z,10.6
2022-09-10T08:41:38.201Z,12.4
2022-09-10T08:43:40.215Z,10.7
2022-09-10T08:45:45.315Z,11.9
2022-09-10T08:47:47.325Z,10.9
2022-09-10T08:49:49.341Z,10.8
2022-09-10T08:52:53.892Z,10.7
2022-09-10T08:54:55.899Z,10.6
2022-09-10T08:59:17.025Z,9
2022-09-10T09:05:09.118Z,10.5
2022-09-10T09:07:11.096Z,9.7
2022-09-10T09:09:15.618Z,9.6
2022-09-10T09:11:15.111Z,10.7
2022-09-10T09:13:20.262Z,12.5
2022-09-10T09:15:22.249Z,13.2
2022-09-10T09:17:24.293Z,10.5
2022-09-10T09:19:26.282Z,11.6
2022-09-10T09:23:30.313Z,9.3
2022-09-10T09:25:32.337Z,9.8
2022-09-10T09:27:37.431Z,10.5
2022-09-10T09:29:39.438Z,11.4
2022-09-10T09:31:41.451Z,9.3
2022-09-10T09:33:43.474Z,12.9
2022-09-10T09:35:45.642Z,11.2
2022-09-10T09:37:47.519Z,10.8
2022-09-10T09:39:49.543Z,10.7
2022-09-10T09:43:56.629Z,10.5
2022-09-10T09:45:58.806Z,10.9
2022-09-10T09:47:01.192Z,11.5
2022-09-10T09:49:03.208Z,11.3
2022-09-10T09:51:05.227Z,11.2
2022-09-10T09:53:07.248Z,11.6
2022-09-10T09:55:15.229Z,11.4
2022-09-10T09:59:16.411Z,10.6
2022-09-10T10:05:23.087Z,10
2022-09-10T10:09:30.183Z,10.2
2022-09-10T10:11:32.191Z,10.7
2022-09-10T10:13:34.194Z,10.4
2022-09-10T10:15:36.319Z,9.5
2022-09-10T10:19:40.248Z,9.3
2022-09-10T10:21:42.214Z,10.4
2022-09-10T10:23:47.298Z,10.4
2022-09-10T10:25:49.318Z,9.5
2022-09-10T10:27:51.330Z,10.1
2022-09-10T10:29:53.325Z,8.5
2022-09-10T10:31:55.331Z,9.9
2022-09-10T10:33:57.352Z,11.1
2022-09-10T10:35:59.338Z,9.8
2022-09-10T10:38:04.419Z,11.2
2022-09-10T10:40:06.587Z,9.5
2022-09-10T10:43:10.957Z,9.9
2022-09-10T10:45:13.003Z,10.5
2022-09-10T10:47:14.945Z,9.7
2022-09-10T10:49:16.951Z,9.2
2022-09-10T10:51:22.043Z,9.3
2022-09-10T10:53:24.001Z,7.5
2022-09-10T10:55:26.003Z,6.3
2022-09-10T10:57:27.994Z,6.2
2022-09-10T10:59:29.972Z,6.7
2022-09-10T11:01:31.998Z,7
2022-09-10T11:03:33.916Z,6.6
2022-09-10T11:05:38.976Z,5.7
2022-09-10T11:07:40.955Z,5.8
2022-09-10T11:09:42.915Z,4.9
2022-09-10T11:15:49.029Z,4.5
2022-09-10T11:17:50.771Z,3.8
2022-09-10T11:20:17.198Z,4.2
2022-09-10T11:26:01.708Z,4.2
2022-09-10T11:30:05.584Z,3.8
2022-09-10T11:32:07.537Z,3.7
2022-09-10T11:34:12.555Z,4
2022-09-10T11:36:14.492Z,5.5
2022-09-10T11:38:16.421Z,4.7
2022-09-10T11:40:33.009Z,5.3
2022-09-10T11:42:34.948Z,4.4
2022-09-10T11:44:36.875Z,4.2
2022-09-10T11:46:42.548Z,5.7
2022-09-10T11:48:44.503Z,4.4
2022-09-10T11:50:46.442Z,3.4
2022-09-10T11:52:48.388Z,3.3
2022-09-10T11:54:50.336Z,3.5
2022-09-10T11:56:52.267Z,3.2
2022-09-10T11:58:54.215Z,3.5
2022-09-10T12:00:59.237Z,2.7
2022-09-10T12:03:01.196Z,1.8
2022-09-10T12:05:03.157Z,1.7
2022-09-10T12:07:05.094Z,1.7
2022-09-10T12:09:07.045Z,1.8
2022-09-10T12:11:08.969Z,1.4
2022-09-10T12:13:10.923Z,1.8
2022-09-10T12:15:15.966Z,1.6
2022-09-10T12:17:17.898Z,1.4
2022-09-10T12:19:19.845Z,1.1
2022-09-10T12:21:21.781Z,1.3
2022-09-10T12:23:23.724Z,1.2
2022-09-10T12:25:27.505Z,1.5
2022-09-10T12:27:27.590Z,1.5
2022-09-10T12:29:32.613Z,2.5
2022-09-10T12:31:34.542Z,1.7
2022-09-10T12:33:36.591Z,1.9
2022-09-10T12:36:40.886Z,3
2022-09-10T12:38:42.847Z,3.4
2022-09-10T12:40:44.737Z,2.8
2022-09-10T12:42:49.723Z,3.5
2022-09-10T12:44:51.642Z,3.5
2022-09-10T12:46:53.545Z,2.8
2022-09-10T12:48:55.463Z,2.8
2022-09-10T12:50:57.346Z,3.1
2022-09-10T12:52:59.261Z,3
2022-09-10T13:07:15.722Z,1.2
2022-09-10T13:09:17.641Z,1.5
2022-09-10T13:11:22.660Z,1.6
2022-09-10T13:13:24.573Z,1.3
2022-09-10T13:15:26.480Z,1.8
2022-09-10T13:30:45.406Z,1.7
2022-09-10T13:32:47.306Z,1.8
2022-09-10T13:34:49.168Z,1.9
2022-09-10T13:36:51.063Z,1.5
2022-09-10T13:38:58.580Z,1.6
2022-09-10T13:40:57.979Z,1.6
2022-09-10T13:42:59.903Z,2.3
2022-09-10T13:45:01.823Z,1.7
2022-09-10T13:47:03.776Z,1.6
2022-09-10T13:49:05.670Z,1.7
2022-09-10T13:51:07.734Z,2.2
2022-09-10T13:53:12.616Z,2.5
2022-09-10T13:55:14.532Z,2.2
2022-09-10T13:57:16.475Z,2.1
2022-09-10T13:59:19.934Z,2.3
2022-09-10T14:01:21.840Z,2.6
2022-09-10T14:05:25.682Z,3.1
2022-09-10T14:13:36.523Z,2.8
2022-09-10T14:15:38.463Z,2.3
2022-09-10T14:17:40.356Z,2.9
2022-09-10T14:19:42.279Z,2.4
2022-09-10T14:23:49.256Z,3
2022-09-10T14:25:51.158Z,2.9
2022-09-10T14:26:53.663Z,3.4
2022-09-10T14:28:55.582Z,3
2022-09-10T14:37:06.371Z,3.7
2022-09-10T14:39:08.311Z,3.2
2022-09-10T14:41:10.217Z,2.2
2022-09-10T14:43:12.278Z,3.2
2022-09-10T14:45:14.092Z,3.3
2022-09-10T14:47:15.995Z,3.3
2022-09-10T14:49:21.036Z,2.6
2022-09-10T14:51:22.990Z,3.8
2022-09-10T14:53:24.891Z,3.7
2022-09-10T14:55:26.837Z,3.2
2022-09-10T14:57:28.750Z,3.5
2022-09-10T14:59:30.665Z,3.8
2022-09-10T15:01:32.634Z,4.8
2022-09-10T15:03:37.668Z,4.7
2022-09-10T15:05:39.525Z,3.7
2022-09-10T15:07:41.441Z,3.1
2022-09-10T15:09:43.347Z,3.1
2022-09-10T15:11:45.242Z,3.5
2022-09-10T15:13:47.192Z,2.5
2022-09-10T15:15:49.064Z,2.9
2022-09-10T15:17:54.047Z,3.5
2022-09-10T15:19:55.918Z,2.6
2022-09-10T15:21:57.824Z,2.2
2022-09-10T15:24:20.564Z,2.8
2022-09-10T15:26:22.307Z,2.9
2022-09-10T15:28:24.203Z,3
2022-09-10T15:30:29.207Z,2.9
2022-09-10T15:32:31.098Z,3.5
2022-09-10T15:34:33.006Z,3.4
2022-09-10T15:38:36.816Z,2.5
2022-09-10T15:40:38.747Z,2.1
2022-09-10T15:42:40.683Z,2.9
2022-09-10T15:44:45.704Z,2.5
2022-09-10T15:46:47.623Z,2.2
2022-09-10T15:48:49.541Z,1.9
2022-09-10T15:50:51.468Z,2.7
2022-09-10T15:54:55.325Z,1.6
2022-09-10T16:03:06.258Z,2.3
2022-09-10T16:05:08.171Z,6.8
2022-09-10T16:07:10.079Z,3.5
2022-09-10T16:09:12.021Z,3
2022-09-10T16:11:13.980Z,2.3
2022-09-10T16:13:19.037Z,2.2
2022-09-10T16:15:20.999Z,2.6
2022-09-10T16:17:22.946Z,2.7
2022-09-10T16:18:25.473Z,2.8
2022-09-10T16:26:36.411Z,3.6
2022-09-10T16:28:38.454Z,3.3
2022-09-10T16:30:40.366Z,3.3
2022-09-10T16:36:46.218Z,3.7
2022-09-10T16:38:48.197Z,3.4
2022-09-10T16:42:55.200Z,2.7
2022-09-10T16:44:57.174Z,18.1
2022-09-10T16:46:59.140Z,11.6
2022-09-10T16:49:01.116Z,4.6
2022-09-10T16:55:10.140Z,9.3
2022-09-10T16:59:14.028Z,4.2
2022-09-10T17:01:16.114Z,3.9
2022-09-10T17:03:17.985Z,4.1
2022-09-10T17:05:19.946Z,3.8
2022-09-10T17:07:21.932Z,4.3
2022-09-10T17:09:27.039Z,5.1
2022-09-10T17:11:28.970Z,3.7
2022-09-10T17:13:30.961Z,4.9
2022-09-10T17:16:35.472Z,4.6
2022-09-10T17:18:37.516Z,5.2
2022-09-10T17:24:46.478Z,5.7
2022-09-10T17:26:48.453Z,6
2022-09-10T17:28:50.437Z,6.5
2022-09-10T17:30:52.477Z,7.1
2022-09-10T17:32:54.397Z,7.2
2022-09-10T17:34:56.402Z,7
2022-09-10T17:39:03.473Z,7
2022-09-10T17:41:05.465Z,8.2
2022-09-10T17:43:07.433Z,7.8
2022-09-10T17:45:09.437Z,7.1
2022-09-10T17:49:13.428Z,9.1
2022-09-10T17:51:18.508Z,8
2022-09-10T17:53:20.500Z,7.8
2022-09-10T17:55:22.478Z,9.1
2022-09-10T17:57:24.496Z,8.1
2022-09-10T17:59:26.475Z,6.6
2022-09-10T18:01:28.572Z,7.7
2022-09-10T18:03:30.544Z,7
2022-09-10T18:05:35.572Z,8.9
2022-09-10T18:07:37.561Z,8.1
2022-09-10T18:09:39.569Z,7.5
2022-09-10T18:10:42.112Z,7.3
2022-09-10T18:12:44.116Z,9.2
2022-09-10T18:14:46.129Z,9.6
2022-09-10T18:16:48.121Z,9.3
2022-09-10T18:18:53.204Z,9.6
2022-09-10T18:20:55.212Z,9.3
2022-09-10T18:22:57.226Z,9.3
2022-09-10T18:24:59.225Z,7.7
2022-09-10T18:27:01.226Z,8.9
2022-09-10T18:29:03.245Z,9.3
2022-09-10T18:31:05.334Z,10.1
2022-09-10T18:33:10.370Z,9.9
2022-09-10T18:35:12.342Z,9.9
2022-09-10T18:37:14.376Z,9.9
2022-09-10T18:39:16.373Z,9.5
2022-09-10T18:41:18.383Z,9.5
2022-09-10T18:43:20.390Z,8.2
2022-09-10T18:45:22.401Z,8.8
2022-09-10T18:47:43.591Z,9.4
2022-09-10T18:49:29.497Z,9.7
2022-09-10T18:51:31.535Z,9
2022-09-10T18:53:33.529Z,9.4
2022-09-10T18:55:35.552Z,8.2
2022-09-10T18:57:37.537Z,8.8
2022-09-10T18:59:39.558Z,9.2
2022-09-10T19:01:44.778Z,10.8
2022-09-10T19:03:46.656Z,10.1
2022-09-10T19:05:48.677Z,9.7
2022-09-10T19:08:05.564Z,12.1
2022-09-10T19:10:07.602Z,10
2022-09-10T19:12:09.620Z,10.4
2022-09-10T19:14:14.700Z,12.2
2022-09-10T19:16:16.738Z,14.3
2022-09-10T19:18:18.728Z,10.7
2022-09-10T19:20:20.760Z,12
2022-09-10T19:22:22.790Z,12.5
2022-09-10T19:24:37.832Z,11.8
2022-09-10T19:26:26.817Z,12.4
2022-09-10T19:32:35.972Z,14.1
2022-09-10T19:34:37.993Z,13.3
2022-09-10T19:36:40.022Z,12.7
2022-09-10T19:38:42.052Z,13.5
2022-09-10T19:40:44.063Z,12.6
2022-09-10T19:46:53.239Z,15.5
2022-09-10T19:48:55.222Z,16.1
2022-09-10T19:50:58.837Z,16.9
2022-09-10T19:55:02.796Z,17.8
2022-09-10T19:57:07.893Z,17.9
2022-09-10T20:02:14.636Z,16
2022-09-10T20:04:16.533Z,15.6
2022-09-10T20:06:18.569Z,16.2
2022-09-10T20:08:20.594Z,16.3
2022-09-10T20:10:25.718Z,17.4
2022-09-10T20:12:27.754Z,17.2
2022-09-10T20:14:29.774Z,15.9
2022-09-10T20:16:31.796Z,17.2
2022-09-10T20:18:33.824Z,19.4
2022-09-10T20:20:35.847Z,19.4
2022-09-10T20:22:38.720Z,19.1
2022-09-10T20:24:42.992Z,19.4
2022-09-10T20:28:47.048Z,16.3
2022-09-10T20:30:49.119Z,18.9
2022-09-10T20:32:51.113Z,20.5
2022-09-10T20:34:53.129Z,19.8
2022-09-10T20:39:00.254Z,21.1
2022-09-10T20:41:02.289Z,22.3
2022-09-10T20:43:04.329Z,21.1
2022-09-10T20:45:06.362Z,22.3
2022-09-10T20:47:08.373Z,21.9
2022-09-10T20:49:10.430Z,24
2022-09-10T20:53:17.573Z,27.1
2022-09-10T20:55:19.601Z,23.9
2022-09-10T20:57:21.629Z,25.9
2022-09-10T20:58:24.193Z,27
2022-09-10T21:00:26.217Z,26
2022-09-10T21:02:28.336Z,25.7
2022-09-10T21:08:37.476Z,27.7
2022-09-10T21:10:39.451Z,26.8
2022-09-10T21:14:43.572Z,27.5
2022-09-10T21:18:50.917Z,26.9
2022-09-10T21:20:52.720Z,32.7
2022-09-10T21:22:54.773Z,29.3
2022-09-10T21:24:56.797Z,29.8
2022-09-10T21:26:58.851Z,27.4
2022-09-10T21:35:10.105Z,33
2022-09-10T21:39:14.193Z,30.3
2022-09-10T21:41:16.237Z,29.2
2022-09-10T21:43:18.272Z,30.3
2022-09-10T21:45:23.333Z,27.8
2022-09-10T21:47:22.391Z,29.6
2022-09-10T21:49:27.455Z,31.9
2022-09-10T21:51:29.493Z,29.5
2022-09-10T21:53:31.550Z,29.7
2022-09-10T21:54:34.092Z,30.6
2022-09-10T21:56:36.133Z,26.6
2022-09-10T21:58:38.185Z,31
2022-09-10T22:02:45.427Z,33.6
2022-09-10T22:06:49.433Z,32
2022-09-10T22:12:55.581Z,30
2022-09-10T22:14:57.632Z,28.9
2022-09-10T22:17:02.738Z,34.7
2022-09-10T22:19:04.774Z,29.6
2022-09-10T22:21:06.833Z,29.5
2022-09-10T22:23:08.901Z,34.9
2022-09-10T22:27:12.959Z,32.3
2022-09-10T22:29:15.004Z,31.8
2022-09-10T22:31:20.332Z,36.2
2022-09-10T22:33:22.173Z,33.4
2022-09-10T22:35:24.206Z,34.9
2022-09-10T22:37:26.257Z,34.1
2022-09-10T22:39:28.291Z,35.6
2022-09-10T22:41:30.343Z,35.6
2022-09-10T22:43:32.377Z,36.4
2022-09-10T22:45:37.506Z,38.6
2022-09-10T22:47:39.524Z,35.5
2022-09-10T22:49:41.581Z,35.5
2022-09-10T22:52:02.341Z,38.9
2022-09-10T22:54:04.381Z,35.9
2022-09-10T22:56:06.426Z,39
2022-09-10T22:58:11.519Z,42
2022-09-10T23:00:13.562Z,39.5
2022-09-10T23:02:15.637Z,41
2022-09-10T23:04:17.693Z,37.5
2022-09-10T23:06:19.735Z,39.9
2022-09-10T23:08:21.783Z,38.9
2022-09-10T23:12:28.917Z,43
2022-09-10T23:34:54.511Z,42.7
2022-09-10T23:41:03.722Z,47.6
2022-09-10T23:43:05.753Z,40.9
2022-09-10T23:45:07.825Z,42.6
2022-09-10T23:50:14.447Z,44.5
2022-09-10T23:52:16.498Z,40.6
2022-09-10T23:56:23.658Z,42.7
2022-09-10T23:58:25.696Z,42.5
